Portada
METAR-TAF:

METAR-TAF

Aeropuertos :

Aeropuerto Internacional Amata Kabua

Majuro, Islas Marshall

latitud: 07-04N, longitud: 171-17E, altitud: 2 m

Observación

El informe se hizo hace 15 horas y 59 minutos, a las 23:50 UTC
Viento 6 kt del sur-sureste
Temperatura 31°C
Humedad 75%
Presión 1011 hPa
Visibilidad: 24.1 km
Escasas nubes a una altura de 1500 ft
Nubes dispersas a una altura de 5000 ft
Cielo nuboso a una altura de 30000 ft

METAR: PKMJ 202350Z 16006KT 15SM FEW015 SCT050 BKN300 31/26 A2986 RMK LAST

Hora: 03:49 (15:49 UTC)

Pronóstico

El informe se hizo hace 12 horas y 36 minutos, a las 03:13 UTC
Pronóstico válido del 21 a las 03 UTC al 21 a las 24 UTC
Viento 6 kt con dirección variable
Visibilidad: 10 km
Escasas nubes a una altura de 1500 ft
Nubes dispersas a una altura de 5000 ft

TAF: PKMJ 210313Z 2103/2124 VRB06KT P6SM FEW015 SCT050

Observaciones y pronósticos meteorológicos de más de 4000 aeropuertos (mensajes METAR y TAF).

Los puntos amarillos y rojos representan las estaciones disponibles.

Ponga el ratón en el punto deseado para ver el nombre de la estación.

Haga clic para ver las observaciones y los pronósticos meteorológicos.

Para cambiar el mapa : haga clic en los botones verdes con una cruz de color negro para hacer un zoom, en el botón verde con un guión para alejar o en las flechas verdes para mapas adyacentes.


METAR-TAF: